createdAt,value
2017-07-24T00:01:46.797Z,4.22
2017-07-24T00:04:14.374Z,3.90
2017-07-24T00:06:41.914Z,3.75
2017-07-24T00:09:10.378Z,4.05
2017-07-24T00:11:37.910Z,3.97
2017-07-24T00:14:05.633Z,4.10
2017-07-24T00:16:33.173Z,3.80
2017-07-24T00:19:00.704Z,3.80
2017-07-24T00:21:28.345Z,4.05
2017-07-24T00:23:55.922Z,4.45
2017-07-24T00:26:23.453Z,4.10
2017-07-24T00:28:51.027Z,4.97
2017-07-24T00:31:18.625Z,4.30
2017-07-24T00:33:46.161Z,4.70
2017-07-24T00:36:13.938Z,4.37
2017-07-24T00:38:41.591Z,4.30
2017-07-24T00:41:09.125Z,4.55
2017-07-24T00:43:36.696Z,4.20
2017-07-24T00:46:04.230Z,4.80
2017-07-24T00:48:31.811Z,4.35
2017-07-24T00:50:59.346Z,4.62
2017-07-24T00:53:27.361Z,4.97
2017-07-24T00:55:54.897Z,4.95
2017-07-24T00:58:22.429Z,4.22
2017-07-24T01:00:50.085Z,4.57
2017-07-24T01:03:18.385Z,4.60
2017-07-24T01:05:45.961Z,4.20
2017-07-24T01:08:13.545Z,4.80
2017-07-24T01:10:41.080Z,4.80
2017-07-24T01:13:08.864Z,5.10
2017-07-24T01:15:36.440Z,4.62
2017-07-24T01:18:04.009Z,4.40
2017-07-24T01:20:31.542Z,4.32
2017-07-24T01:22:59.120Z,4.25
2017-07-24T01:25:26.845Z,4.72
2017-07-24T01:27:54.373Z,4.15
2017-07-24T01:30:21.906Z,4.05
2017-07-24T01:32:49.963Z,4.90
2017-07-24T01:35:17.494Z,4.00
2017-07-24T01:37:45.233Z,4.70
2017-07-24T01:40:13.535Z,4.30
2017-07-24T01:42:41.114Z,4.68
2017-07-24T01:45:08.658Z,4.45
2017-07-24T01:47:36.241Z,4.35
2017-07-24T01:50:03.774Z,4.53
2017-07-24T01:52:31.417Z,4.32
2017-07-24T01:54:59.718Z,4.50
2017-07-24T01:57:27.296Z,3.55
2017-07-24T01:59:54.832Z,4.28
2017-07-24T02:02:22.417Z,4.65
2017-07-24T02:04:49.997Z,4.30
2017-07-24T02:07:17.531Z,4.57
2017-07-24T02:09:45.414Z,4.72
2017-07-24T02:12:12.949Z,4.50
2017-07-24T02:14:40.653Z,4.93
2017-07-24T02:17:08.185Z,4.85
2017-07-24T02:19:35.756Z,4.55
2017-07-24T02:22:03.284Z,5.00
2017-07-24T02:24:30.858Z,4.35
2017-07-24T02:26:58.399Z,4.62
2017-07-24T02:29:26.041Z,5.20
2017-07-24T02:31:54.341Z,4.70
2017-07-24T02:34:21.928Z,5.20
2017-07-24T02:36:49.638Z,5.25
2017-07-24T02:39:17.933Z,5.10
2017-07-24T02:41:45.511Z,4.68
2017-07-24T02:44:13.520Z,5.18
2017-07-24T02:46:41.452Z,4.72
2017-07-24T02:49:08.993Z,5.05
2017-07-24T02:51:36.536Z,5.03
2017-07-24T02:54:04.892Z,5.20
2017-07-24T02:56:32.422Z,5.60
2017-07-24T02:58:59.996Z,5.20
2017-07-24T03:01:27.528Z,5.57
2017-07-24T03:03:55.146Z,5.68
2017-07-24T03:06:22.682Z,5.85
2017-07-24T03:08:50.249Z,6.22
2017-07-24T03:11:17.782Z,5.80
2017-07-24T03:13:45.361Z,6.15
2017-07-24T03:16:12.903Z,5.70
2017-07-24T03:18:40.786Z,6.40
2017-07-24T03:21:08.330Z,5.75
2017-07-24T03:23:35.912Z,5.90
2017-07-24T03:26:03.448Z,5.90
2017-07-24T03:31:04.402Z,5.37
2017-07-24T03:33:32.097Z,5.70
2017-07-24T03:35:59.670Z,5.35
2017-07-24T03:38:27.505Z,5.68
2017-07-24T03:40:55.076Z,6.03
2017-07-24T03:43:22.656Z,5.62
2017-07-24T03:45:50.337Z,5.65
2017-07-24T03:48:17.874Z,5.72
2017-07-24T03:50:45.410Z,5.70
2017-07-24T03:53:13.289Z,6.15
2017-07-24T03:55:40.816Z,6.32
2017-07-24T03:58:08.387Z,7.10
2017-07-24T04:00:35.925Z,7.75
2017-07-24T04:03:03.841Z,7.00
2017-07-24T04:05:31.376Z,5.95
2017-07-24T04:08:00.496Z,7.00
2017-07-24T04:10:28.030Z,6.32
2017-07-24T04:12:55.758Z,6.60
2017-07-24T04:15:24.068Z,6.45
2017-07-24T04:17:51.597Z,5.72
2017-07-24T04:20:19.933Z,6.20
2017-07-24T04:22:47.529Z,6.68
2017-07-24T04:25:15.945Z,6.30
2017-07-24T04:27:43.485Z,6.28
2017-07-24T04:30:11.067Z,6.28
2017-07-24T04:35:12.522Z,6.57
2017-07-24T04:37:47.064Z,5.85
2017-07-24T04:40:14.608Z,6.12
2017-07-24T04:42:42.373Z,6.95
2017-07-24T04:45:09.950Z,6.55
2017-07-24T04:47:37.532Z,6.37
2017-07-24T04:50:05.108Z,6.80
2017-07-24T04:52:32.636Z,6.28
2017-07-24T04:55:00.210Z,6.57
2017-07-24T04:57:27.741Z,7.25
2017-07-24T04:59:55.454Z,6.65
2017-07-24T05:02:23.141Z,7.15
2017-07-24T05:04:51.443Z,6.10
2017-07-24T05:07:18.980Z,6.70
2017-07-24T05:09:47.395Z,7.20
2017-07-24T05:12:14.934Z,7.95
2017-07-24T05:14:42.516Z,6.97
2017-07-24T05:17:10.059Z,8.15
2017-07-24T05:19:37.753Z,7.82
2017-07-24T05:22:05.286Z,8.05
2017-07-24T05:24:32.865Z,7.87
2017-07-24T05:27:00.396Z,8.10
2017-07-24T05:29:27.970Z,6.90
2017-07-24T05:31:55.518Z,8.45
2017-07-24T05:34:23.159Z,8.60
2017-07-24T05:36:50.701Z,8.23
2017-07-24T05:39:24.240Z,7.87
2017-07-24T05:41:51.788Z,7.80
2017-07-24T05:44:19.431Z,9.20
2017-07-24T05:46:46.964Z,8.82
2017-07-24T05:49:14.642Z,9.00
2017-07-24T05:51:42.219Z,8.43
2017-07-24T05:54:10.573Z,8.82
2017-07-24T05:56:38.108Z,9.90
2017-07-24T05:59:05.681Z,8.05
2017-07-24T06:01:33.426Z,9.55
2017-07-24T06:04:01.073Z,9.20
2017-07-24T06:06:28.610Z,9.60
2017-07-24T06:08:57.061Z,8.40
2017-07-24T06:11:24.597Z,9.20
2017-07-24T06:13:52.174Z,9.43
2017-07-24T06:16:19.707Z,9.10
2017-07-24T06:18:47.289Z,9.13
2017-07-24T06:21:14.825Z,9.90
2017-07-24T06:23:42.451Z,9.77
2017-07-24T06:26:10.756Z,9.20
2017-07-24T06:28:38.330Z,9.45
2017-07-24T06:31:05.873Z,10.30
2017-07-24T06:33:33.451Z,9.80
2017-07-24T06:36:00.984Z,9.10
2017-07-24T06:38:28.745Z,9.73
2017-07-24T06:40:57.089Z,9.57
2017-07-24T06:43:24.632Z,9.18
2017-07-24T06:45:53.521Z,9.32
2017-07-24T06:48:21.067Z,9.93
2017-07-24T06:50:48.640Z,10.35
2017-07-24T06:53:16.237Z,10.07
2017-07-24T06:55:43.961Z,11.02
2017-07-24T06:58:11.497Z,11.32
2017-07-24T07:00:39.077Z,10.05
2017-07-24T07:03:06.612Z,11.50
2017-07-24T07:05:40.457Z,10.65
2017-07-24T07:08:08.002Z,10.60
2017-07-24T07:10:35.782Z,11.38
2017-07-24T07:13:03.317Z,10.15
2017-07-24T07:15:30.901Z,9.85
2017-07-24T07:17:58.436Z,10.73
2017-07-24T07:20:26.013Z,10.30
2017-07-24T07:22:53.557Z,10.02
2017-07-24T07:25:21.132Z,10.95
2017-07-24T07:27:48.673Z,11.43
2017-07-24T07:30:16.577Z,11.15
2017-07-24T07:32:44.120Z,10.68
2017-07-24T07:35:11.692Z,11.73
2017-07-24T07:37:39.626Z,10.85
2017-07-24T07:40:07.210Z,10.88
2017-07-24T07:42:34.784Z,9.93
2017-07-24T07:45:02.357Z,9.40
2017-07-24T07:47:29.889Z,9.32
2017-07-24T07:49:57.662Z,9.95
2017-07-24T07:52:25.197Z,9.50
2017-07-24T07:54:52.770Z,8.70
2017-07-24T07:57:20.302Z,8.90
2017-07-24T07:59:48.021Z,7.68
2017-07-24T08:02:15.553Z,5.68
2017-07-24T08:04:43.121Z,5.30
2017-07-24T08:07:10.653Z,4.78
2017-07-24T08:09:38.449Z,4.62
2017-07-24T08:12:06.026Z,3.75
2017-07-24T08:14:33.566Z,3.50
2017-07-24T08:17:01.145Z,3.90
2017-07-24T08:19:28.686Z,4.10
2017-07-24T08:21:56.256Z,4.40
2017-07-24T08:24:23.785Z,4.22
2017-07-24T08:26:51.417Z,4.45
2017-07-24T08:29:19.717Z,4.75
2017-07-24T08:31:47.437Z,4.62
2017-07-24T08:34:14.979Z,5.47
2017-07-24T08:36:42.549Z,4.22
2017-07-24T08:39:10.085Z,4.37
2017-07-24T08:41:37.813Z,5.80
2017-07-24T08:44:06.112Z,5.82
2017-07-24T08:46:33.686Z,5.40
2017-07-24T08:49:01.222Z,5.85
2017-07-24T08:51:28.796Z,5.60
2017-07-24T08:53:56.332Z,5.53
2017-07-24T08:56:24.815Z,5.12
2017-07-24T08:58:52.359Z,5.68
2017-07-24T09:01:20.880Z,5.30
2017-07-24T09:03:48.408Z,5.15
2017-07-24T09:06:16.745Z,5.80
2017-07-24T09:08:44.290Z,5.55
2017-07-24T09:11:12.009Z,5.20
2017-07-24T09:13:40.313Z,5.32
2017-07-24T09:16:07.890Z,5.32
2017-07-24T09:18:35.425Z,6.07
2017-07-24T09:21:02.998Z,5.43
2017-07-24T09:23:30.529Z,5.78
2017-07-24T09:25:58.869Z,7.07
2017-07-24T09:28:26.410Z,5.65
2017-07-24T09:30:59.005Z,5.05
2017-07-24T09:33:26.589Z,5.10
2017-07-24T09:35:54.897Z,5.50
2017-07-24T09:38:22.562Z,4.90
2017-07-24T09:40:50.113Z,5.60
2017-07-24T09:43:18.034Z,5.70
2017-07-24T09:45:45.564Z,6.25
2017-07-24T09:48:13.106Z,6.50
2017-07-24T09:50:40.838Z,6.30
2017-07-24T09:53:08.419Z,7.85
2017-07-24T09:55:36.727Z,6.50
2017-07-24T09:58:04.319Z,6.80
2017-07-24T10:00:31.898Z,7.55
2017-07-24T10:02:59.629Z,6.60
2017-07-24T10:05:27.165Z,7.32
2017-07-24T10:07:54.932Z,6.57
2017-07-24T10:10:22.483Z,9.23
2017-07-24T10:12:50.061Z,9.77
2017-07-24T10:15:17.601Z,8.77
2017-07-24T10:17:45.181Z,10.32
2017-07-24T10:20:12.730Z,11.50
2017-07-24T10:22:40.536Z,11.48
2017-07-24T10:25:08.101Z,11.60
2017-07-24T10:27:35.653Z,9.30
2017-07-24T10:30:03.233Z,9.30
2017-07-24T10:32:30.778Z,10.00
2017-07-24T10:34:58.365Z,9.50
2017-07-24T10:37:25.914Z,8.68
2017-07-24T10:39:54.169Z,10.50
2017-07-24T10:42:21.713Z,9.07
2017-07-24T10:44:49.401Z,10.50
2017-07-24T10:47:16.946Z,9.60
2017-07-24T10:49:44.497Z,10.90
2017-07-24T10:52:12.089Z,11.00
2017-07-24T10:54:39.761Z,9.98
2017-07-24T10:57:08.189Z,10.00
2017-07-24T10:59:35.724Z,8.52
2017-07-24T11:02:03.456Z,8.20
2017-07-24T11:04:31.039Z,8.68
2017-07-24T11:06:58.591Z,9.15
2017-07-24T11:09:26.946Z,10.00
2017-07-24T11:11:54.714Z,9.95
2017-07-24T11:14:22.265Z,10.63
2017-07-24T11:16:49.807Z,9.50
2017-07-24T11:19:17.390Z,10.07
2017-07-24T11:21:44.934Z,10.05
2017-07-24T11:24:12.517Z,11.60
2017-07-24T11:26:40.072Z,10.38
2017-07-24T11:29:07.836Z,11.60
2017-07-24T11:31:35.385Z,12.60
2017-07-24T11:34:03.375Z,12.45
2017-07-24T11:36:30.937Z,11.30
2017-07-24T11:38:58.648Z,11.05
2017-07-24T11:41:26.199Z,10.80
2017-07-24T11:43:53.780Z,10.85
2017-07-24T11:46:21.437Z,10.10
2017-07-24T11:48:48.992Z,10.32
2017-07-24T11:51:16.577Z,9.30
2017-07-24T11:53:44.117Z,9.80
2017-07-24T11:56:11.708Z,9.45
2017-07-24T11:58:45.901Z,8.00
2017-07-24T12:01:13.453Z,7.87
2017-07-24T12:03:41.113Z,6.65
2017-07-24T12:06:08.648Z,6.30
2017-07-24T12:08:37.001Z,4.18
2017-07-24T12:11:04.541Z,3.78
2017-07-24T12:13:32.274Z,4.90
2017-07-24T12:15:59.818Z,5.43
2017-07-24T12:18:27.362Z,3.90
2017-07-24T12:20:55.862Z,4.97
2017-07-24T12:23:23.397Z,6.37
2017-07-24T12:25:51.019Z,6.30
2017-07-24T12:28:18.569Z,5.93
2017-07-24T12:30:46.135Z,7.03
2017-07-24T12:33:13.857Z,7.12
2017-07-24T12:35:41.454Z,7.57
2017-07-24T12:38:09.014Z,8.10
2017-07-24T12:40:36.790Z,7.03
2017-07-24T12:43:04.323Z,8.03
2017-07-24T12:45:32.374Z,6.57
2017-07-24T12:48:00.702Z,6.87
2017-07-24T12:50:28.236Z,5.47
2017-07-24T12:52:55.923Z,5.80
2017-07-24T12:55:23.458Z,5.93
2017-07-24T12:57:51.084Z,6.00
2017-07-24T13:00:19.950Z,7.63
2017-07-24T13:02:47.490Z,6.40
2017-07-24T13:05:15.122Z,6.40
2017-07-24T13:07:42.649Z,7.93
2017-07-24T13:10:10.257Z,7.30
2017-07-24T13:12:37.793Z,6.30
2017-07-24T13:15:05.560Z,6.50
2017-07-24T13:17:33.089Z,6.40
2017-07-24T13:20:00.669Z,6.87
2017-07-24T13:22:28.201Z,8.93
2017-07-24T13:24:55.777Z,10.40
2017-07-24T13:27:23.353Z,10.13
2017-07-24T13:29:51.653Z,9.77
2017-07-24T13:32:19.545Z,11.07
2017-07-24T13:34:47.094Z,10.90
2017-07-24T13:37:14.676Z,10.17
2017-07-24T13:39:42.285Z,11.37
2017-07-24T13:42:09.892Z,12.60
2017-07-24T13:44:37.497Z,11.05
2017-07-24T13:47:05.094Z,12.05
2017-07-24T13:49:32.864Z,12.57
2017-07-24T13:52:00.463Z,13.35
2017-07-24T13:54:28.066Z,11.95
2017-07-24T13:57:00.694Z,12.60
2017-07-24T13:59:28.656Z,12.63
2017-07-24T14:01:56.241Z,13.50
2017-07-24T14:04:23.793Z,12.27
2017-07-24T14:06:51.765Z,12.43
2017-07-24T14:09:19.322Z,10.80
2017-07-24T14:11:46.954Z,11.07
2017-07-24T14:14:14.537Z,11.82
2017-07-24T14:16:42.125Z,11.15
2017-07-24T14:19:09.680Z,11.65
2017-07-24T14:21:37.272Z,11.15
2017-07-24T14:24:04.820Z,11.80
2017-07-24T14:26:32.554Z,11.23
2017-07-24T14:29:00.122Z,11.63
2017-07-24T14:31:27.709Z,12.32
2017-07-24T14:33:56.021Z,11.90
2017-07-24T14:36:23.708Z,12.10
2017-07-24T14:38:51.296Z,12.20
2017-07-24T14:41:19.258Z,10.90
2017-07-24T14:43:46.913Z,11.57
2017-07-24T14:46:14.501Z,10.85
2017-07-24T14:48:42.062Z,11.25
2017-07-24T14:51:09.690Z,9.43
2017-07-24T14:53:37.290Z,7.80
2017-07-24T14:56:04.868Z,8.05
2017-07-24T14:58:38.975Z,6.85
2017-07-24T15:01:06.874Z,6.57
2017-07-24T15:03:34.415Z,6.35
2017-07-24T15:06:01.957Z,6.75
2017-07-24T15:11:02.257Z,5.80
2017-07-24T15:13:29.798Z,5.82
2017-07-24T15:15:57.544Z,5.35
2017-07-24T15:18:25.085Z,5.32
2017-07-24T15:20:52.630Z,5.32
2017-07-24T15:23:20.221Z,4.45
2017-07-24T15:25:48.510Z,4.85
2017-07-24T15:28:16.040Z,4.57
2017-07-24T15:30:43.577Z,4.30
2017-07-24T15:33:12.073Z,4.00
2017-07-24T15:35:40.377Z,3.90
2017-07-24T15:38:08.066Z,4.10
2017-07-24T15:40:35.689Z,4.03
2017-07-24T15:43:08.113Z,4.00
2017-07-24T15:45:35.722Z,3.60
2017-07-24T15:48:03.470Z,3.75
2017-07-24T15:50:31.780Z,4.18
2017-07-24T15:53:04.181Z,3.75
2017-07-24T15:55:31.721Z,3.37
2017-07-24T15:57:59.307Z,3.30
2017-07-24T16:00:26.848Z,3.08
2017-07-24T16:02:54.569Z,3.10
2017-07-24T16:05:22.874Z,2.78
2017-07-24T16:07:50.452Z,3.05
2017-07-24T16:10:18.044Z,2.97
2017-07-24T16:12:45.788Z,2.80
2017-07-24T16:15:13.328Z,2.85
2017-07-24T16:17:40.973Z,2.90
2017-07-24T16:20:08.518Z,2.80
2017-07-24T16:22:36.104Z,2.40
2017-07-24T16:25:03.677Z,1.97
2017-07-24T16:27:31.217Z,2.25
2017-07-24T16:29:58.802Z,1.70
2017-07-24T16:32:26.685Z,1.60
2017-07-24T16:34:54.221Z,1.73
2017-07-24T16:37:21.804Z,1.47
2017-07-24T16:39:49.337Z,1.20
2017-07-24T16:42:17.041Z,1.00
2017-07-24T16:44:44.616Z,1.10
2017-07-24T16:47:12.189Z,1.27
2017-07-24T16:49:40.498Z,0.90
2017-07-24T16:52:08.404Z,0.73
2017-07-24T16:54:35.942Z,0.80
2017-07-24T16:57:09.877Z,1.03
2017-07-24T16:59:37.429Z,1.00
2017-07-24T17:02:04.970Z,1.20
2017-07-24T17:04:32.610Z,1.43
2017-07-24T17:07:00.673Z,1.37
2017-07-24T17:09:28.225Z,1.30
2017-07-24T17:11:55.766Z,1.60
2017-07-24T17:14:24.301Z,1.40
2017-07-24T17:16:51.849Z,1.40
2017-07-24T17:19:19.434Z,1.65
2017-07-24T17:21:47.023Z,1.60
2017-07-24T17:24:14.766Z,1.67
2017-07-24T17:26:42.317Z,1.70
2017-07-24T17:29:09.868Z,1.80
2017-07-24T17:31:37.654Z,1.70
2017-07-24T17:34:07.749Z,2.10
2017-07-24T17:36:35.337Z,1.80
2017-07-24T17:39:04.229Z,2.15
2017-07-24T17:41:31.997Z,3.70
2017-07-24T17:43:59.590Z,2.95
2017-07-24T17:46:27.897Z,2.95
2017-07-24T17:48:55.453Z,3.35
2017-07-24T17:51:23.162Z,3.30
2017-07-24T17:53:51.289Z,3.50
2017-07-24T17:56:18.865Z,3.40
2017-07-24T17:58:46.401Z,3.45
2017-07-24T18:01:14.125Z,3.50
2017-07-24T18:03:41.669Z,3.33
2017-07-24T18:06:09.214Z,4.18
2017-07-24T18:08:37.509Z,3.95
2017-07-24T18:11:05.045Z,3.58
2017-07-24T18:13:32.584Z,3.55
2017-07-24T18:16:00.174Z,3.65
2017-07-24T18:18:27.756Z,3.37
2017-07-24T18:20:55.298Z,3.78
2017-07-24T18:23:23.151Z,5.12
2017-07-24T18:25:50.703Z,5.05
2017-07-24T18:28:18.241Z,6.35
2017-07-24T18:30:48.023Z,5.93
2017-07-24T18:33:15.629Z,5.75
2017-07-24T18:35:43.214Z,5.25
2017-07-24T18:38:10.753Z,5.60
2017-07-24T18:40:38.364Z,5.20
2017-07-24T18:43:06.631Z,6.47
2017-07-24T18:45:34.166Z,5.45
2017-07-24T18:48:01.710Z,5.53
2017-07-24T18:50:29.665Z,5.85
2017-07-24T18:52:57.213Z,5.85
2017-07-24T18:55:25.520Z,6.28
2017-07-24T18:57:56.894Z,6.07
2017-07-24T19:00:24.433Z,6.55
2017-07-24T19:02:52.013Z,6.20
2017-07-24T19:05:19.548Z,7.30
2017-07-24T19:07:52.166Z,7.32
2017-07-24T19:10:19.971Z,7.55
2017-07-24T19:12:48.382Z,6.78
2017-07-24T19:15:15.925Z,7.00
2017-07-24T19:17:43.508Z,7.00
2017-07-24T19:20:11.042Z,7.80
2017-07-24T19:22:39.186Z,8.10
2017-07-24T19:25:06.722Z,8.13
2017-07-24T19:27:34.254Z,7.43
2017-07-24T19:30:02.251Z,8.52
2017-07-24T19:32:29.789Z,7.55
2017-07-24T19:34:57.324Z,7.95
2017-07-24T19:37:24.896Z,7.95
2017-07-24T19:39:52.794Z,8.00
2017-07-24T19:42:20.613Z,7.10
2017-07-24T19:44:48.951Z,7.10
2017-07-24T19:47:16.530Z,6.68
2017-07-24T19:49:44.105Z,6.82
2017-07-24T19:52:11.933Z,6.35
2017-07-24T19:54:39.474Z,7.03
2017-07-24T19:57:07.017Z,6.80
2017-07-24T19:59:34.849Z,6.90
2017-07-24T20:02:03.145Z,6.65
2017-07-24T20:04:31.645Z,7.32
2017-07-24T20:07:00.081Z,6.05
2017-07-24T20:09:27.618Z,5.80
2017-07-24T20:11:55.152Z,6.78
2017-07-24T20:14:22.717Z,6.43
2017-07-24T20:16:50.261Z,6.50
2017-07-24T20:19:17.900Z,6.72
2017-07-24T20:21:46.277Z,6.43
2017-07-24T20:24:15.126Z,7.00
2017-07-24T20:26:42.659Z,6.90
2017-07-24T20:29:10.189Z,7.03
2017-07-24T20:31:37.756Z,6.25
2017-07-24T20:34:05.300Z,6.15
2017-07-24T20:36:33.132Z,6.22
2017-07-24T20:39:00.729Z,5.82
2017-07-24T20:41:29.372Z,6.30
2017-07-24T20:43:56.910Z,6.78
2017-07-24T20:46:24.487Z,8.70
2017-07-24T20:48:52.026Z,7.22
2017-07-24T20:51:19.766Z,7.32
2017-07-24T20:53:48.073Z,7.37
2017-07-24T20:56:15.697Z,7.90
2017-07-24T20:58:44.350Z,6.93
2017-07-24T21:01:11.926Z,7.18
2017-07-24T21:03:39.509Z,9.18
2017-07-24T21:06:07.922Z,7.40
2017-07-24T21:08:35.497Z,8.38
2017-07-24T21:11:03.075Z,8.70
2017-07-24T21:13:35.858Z,11.25
2017-07-24T21:16:03.406Z,10.90
2017-07-24T21:18:30.944Z,13.02
2017-07-24T21:20:58.518Z,12.43
2017-07-24T21:23:26.099Z,12.68
2017-07-24T21:25:53.640Z,12.85
2017-07-24T21:28:21.222Z,13.60
2017-07-24T21:30:48.766Z,15.75
2017-07-24T21:33:16.588Z,15.43
2017-07-24T21:35:44.128Z,15.68
2017-07-24T21:38:11.668Z,16.60
2017-07-24T21:40:39.250Z,15.50
2017-07-24T21:43:06.910Z,16.75
2017-07-24T21:45:40.589Z,16.12
2017-07-24T21:48:08.133Z,17.85
2017-07-24T21:50:36.213Z,17.90
2017-07-24T21:53:03.749Z,17.37
2017-07-24T21:55:31.294Z,18.60
2017-07-24T21:57:58.878Z,19.37
2017-07-24T22:00:26.461Z,20.55
2017-07-24T22:02:53.992Z,20.08
2017-07-24T22:05:21.577Z,19.95
2017-07-24T22:07:49.281Z,20.55
2017-07-24T22:10:17.638Z,19.98
2017-07-24T22:12:45.177Z,21.17
2017-07-24T22:15:13.141Z,21.62
2017-07-24T22:17:40.688Z,21.98
2017-07-24T22:20:08.221Z,22.60
2017-07-24T22:22:36.240Z,22.80
2017-07-24T22:25:03.777Z,24.00
2017-07-24T22:27:31.321Z,23.27
2017-07-24T22:29:59.084Z,23.50
2017-07-24T22:32:26.625Z,22.45
2017-07-24T22:34:54.928Z,23.90
2017-07-24T22:37:22.509Z,25.37
2017-07-24T22:39:50.059Z,25.55
2017-07-24T22:42:19.464Z,24.58
2017-07-24T22:44:47.853Z,26.67
2017-07-24T22:47:15.536Z,28.73
2017-07-24T22:49:43.073Z,25.95
2017-07-24T22:52:10.669Z,27.50
2017-07-24T22:54:38.208Z,27.90
2017-07-24T22:57:05.787Z,29.10
2017-07-24T22:59:33.325Z,27.75
2017-07-24T23:02:02.597Z,29.30
2017-07-24T23:04:30.136Z,29.83
2017-07-24T23:06:58.666Z,27.67
2017-07-24T23:09:26.204Z,29.12
2017-07-24T23:11:53.781Z,28.65
2017-07-24T23:14:21.361Z,28.12
2017-07-24T23:16:48.897Z,27.52
2017-07-24T23:19:16.492Z,26.00
2017-07-24T23:21:44.024Z,27.33
2017-07-24T23:24:11.566Z,27.60
2017-07-24T23:26:39.292Z,28.00
2017-07-24T23:29:07.597Z,26.42
2017-07-24T23:31:35.129Z,29.48
2017-07-24T23:34:03.478Z,28.30
2017-07-24T23:36:31.019Z,26.35
2017-07-24T23:38:58.595Z,29.27
2017-07-24T23:41:26.129Z,29.50
2017-07-24T23:43:54.301Z,28.87
2017-07-24T23:46:21.843Z,28.80
2017-07-24T23:48:49.420Z,27.87
2017-07-24T23:51:17.015Z,26.77
2017-07-24T23:53:44.568Z,27.33
2017-07-24T23:56:12.274Z,26.05
2017-07-24T23:58:40.620Z,26.90
